Time;durP1;ratioP1;P1;durP2;ratioP2;P2;SDS_P1;SDS_P2;PMS_P1;PMS_P2;Temp;Humidity;BMP_temperature;BMP_pressure;BME280_temperature;BME280_humidity;BME280_pressure;Samples;Min_cycle;Max_cycle;Signal;HPM_P1;HPM_P2
2021/04/21 00:00:11;;;;;;;9.75;4.65;;;11.10;53.50;;;;;;4961631;28;20031;-66
2021/04/21 00:02:40;;;;;;;14.82;4.75;;;11.10;53.50;;;;;;4960552;28;20038;-66
2021/04/21 00:05:08;;;;;;;9.75;4.93;;;11.10;53.80;;;;;;4964584;28;20023;-66
2021/04/21 00:07:35;;;;;;;9.15;5.10;;;11.10;53.90;;;;;;4966607;28;20041;-67
2021/04/21 00:10:02;;;;;;;9.93;5.15;;;11.00;54.60;;;;;;4965355;28;20393;-67
2021/04/21 00:12:30;;;;;;;8.20;4.72;;;11.00;55.00;;;;;;4964229;28;20104;-67
2021/04/21 00:14:55;;;;;;;6.75;4.13;;;11.00;55.20;;;;;;4965991;28;20108;-68
2021/04/21 00:17:23;;;;;;;8.15;5.05;;;10.90;55.10;;;;;;4963054;28;20034;-66
2021/04/21 00:19:52;;;;;;;9.77;4.88;;;10.90;55.40;;;;;;4966397;28;20034;-66
2021/04/21 00:22:20;;;;;;;10.43;6.15;;;10.90;55.40;;;;;;4964443;28;20027;-66
2021/04/21 00:24:48;;;;;;;8.75;5.60;;;10.90;56.30;;;;;;4968494;28;20473;-66
2021/04/21 00:27:16;;;;;;;7.75;5.32;;;10.90;56.80;;;;;;4963622;28;20035;-67
2021/04/21 00:29:46;;;;;;;9.20;5.03;;;10.90;56.70;;;;;;4964901;28;20031;-67
2021/04/21 00:32:14;;;;;;;9.23;4.93;;;10.80;56.90;;;;;;4964314;28;20101;-66
2021/04/21 00:34:42;;;;;;;10.00;5.18;;;10.80;57.20;;;;;;4962713;28;20023;-67
2021/04/21 00:37:12;;;;;;;9.85;5.82;;;10.80;57.70;;;;;;4961540;28;20405;-66
2021/04/21 00:39:42;;;;;;;11.30;5.32;;;10.70;57.80;;;;;;4962779;28;20128;-67
2021/04/21 00:42:11;;;;;;;9.35;5.55;;;10.70;58.00;;;;;;4961351;28;20500;-67
2021/04/21 00:44:54;;;;;;;12.80;6.07;;;10.60;58.40;;;;;;4964088;28;20028;-67
2021/04/21 00:47:54;;;;;;;11.77;5.70;;;10.60;59.10;;;;;;4962654;28;20543;-66
2021/04/21 00:50:54;;;;;;;8.85;5.07;;;10.60;58.90;;;;;;4963039;28;20038;-66
2021/04/21 00:53:41;;;;;;;10.30;5.90;;;10.60;58.70;;;;;;4958025;28;20527;-66
2021/04/21 00:56:31;;;;;;;10.30;5.75;;;10.50;59.30;;;;;;4962387;28;20489;-66
2021/04/21 00:59:12;;;;;;;6.72;4.65;;;10.50;59.30;;;;;;4964221;28;20102;-66
2021/04/21 01:01:41;;;;;;;9.60;4.70;;;10.50;59.20;;;;;;4969469;28;20034;-66
2021/04/21 01:04:09;;;;;;;8.52;5.65;;;10.40;59.30;;;;;;4972114;28;20085;-66
2021/04/21 01:06:44;;;;;;;10.70;6.22;;;10.40;59.60;;;;;;4963104;28;20128;-67
2021/04/21 01:09:12;;;;;;;11.00;6.68;;;10.30;60.00;;;;;;4962599;28;20031;-66
2021/04/21 01:11:49;;;;;;;10.35;6.53;;;10.30;60.40;;;;;;4964099;28;20047;-67
2021/04/21 01:14:21;;;;;;;11.75;5.93;;;10.30;60.00;;;;;;4962047;28;20043;-67
2021/04/21 01:16:55;;;;;;;11.60;5.75;;;10.30;60.20;;;;;;4962348;28;20046;-66
2021/04/21 01:19:44;;;;;;;10.32;5.95;;;10.30;59.90;;;;;;4978401;28;20041;-66
2021/04/21 01:22:28;;;;;;;9.63;6.13;;;10.30;60.40;;;;;;4963514;28;20050;-66
2021/04/21 01:25:05;;;;;;;12.07;5.20;;;10.20;60.30;;;;;;4992734;28;20126;-66
2021/04/21 01:28:08;;;;;;;8.15;5.95;;;10.20;60.30;;;;;;4963773;28;20027;-67
2021/04/21 01:30:39;;;;;;;9.00;5.18;;;10.20;60.70;;;;;;4960802;28;20080;-66
2021/04/21 01:33:16;;;;;;;14.65;6.80;;;10.20;60.40;;;;;;4961652;28;20054;-66
2021/04/21 01:35:45;;;;;;;8.38;5.38;;;10.20;60.90;;;;;;4964434;28;20062;-66
2021/04/21 01:38:13;;;;;;;9.77;5.60;;;10.10;60.60;;;;;;4962786;28;20556;-67
2021/04/21 01:40:45;;;;;;;11.30;6.28;;;10.10;60.50;;;;;;4962113;28;20024;-66
2021/04/21 01:43:17;;;;;;;7.97;5.60;;;10.10;61.10;;;;;;4966878;28;20442;-67
2021/04/21 01:45:45;;;;;;;9.07;6.13;;;10.10;60.40;;;;;;4963036;28;20046;-66
2021/04/21 01:48:23;;;;;;;8.43;4.80;;;10.10;60.90;;;;;;4965684;28;20031;-66
2021/04/21 01:50:50;;;;;;;6.65;4.55;;;10.00;60.90;;;;;;4963274;28;20110;-66
2021/04/21 01:53:34;;;;;;;11.80;5.80;;;10.00;60.70;;;;;;4965165;28;20031;-66
2021/04/21 01:56:20;;;;;;;8.10;5.03;;;10.00;60.90;;;;;;4965134;28;20528;-67
2021/04/21 01:58:59;;;;;;;12.95;6.20;;;10.00;60.60;;;;;;4962620;28;20038;-66
2021/04/21 02:01:50;;;;;;;9.50;5.50;;;9.90;61.00;;;;;;4963845;28;20608;-66
2021/04/21 02:04:45;;;;;;;10.10;5.70;;;9.90;61.30;;;;;;4962527;28;20034;-66
2021/04/21 02:07:45;;;;;;;9.55;5.70;;;9.90;61.10;;;;;;4961653;28;20409;-66
2021/04/21 02:10:48;;;;;;;10.07;6.13;;;9.80;61.10;;;;;;4963094;28;20411;-66
2021/04/21 02:13:32;;;;;;;10.63;5.70;;;9.80;61.10;;;;;;4965471;28;20035;-66
2021/04/21 02:16:36;;;;;;;9.25;5.53;;;9.80;60.90;;;;;;4965629;28;20045;-66
2021/04/21 02:19:27;;;;;;;11.32;5.60;;;9.80;61.10;;;;;;4958702;28;20517;-66
2021/04/21 02:22:14;;;;;;;10.77;5.70;;;9.70;61.00;;;;;;4955279;28;20050;-67
2021/04/21 02:25:13;;;;;;;8.65;5.07;;;9.70;60.70;;;;;;4963614;28;20025;-66
2021/04/21 02:27:57;;;;;;;9.45;5.32;;;9.70;60.80;;;;;;4961529;28;20037;-66
2021/04/21 02:30:45;;;;;;;7.78;5.13;;;9.70;60.90;;;;;;4962963;28;20027;-66
2021/04/21 02:33:13;;;;;;;8.23;5.20;;;9.70;60.80;;;;;;4962970;28;20186;-66
2021/04/21 02:35:42;;;;;;;12.68;5.80;;;9.70;60.80;;;;;;4964039;28;20027;-66
2021/04/21 02:38:44;;;;;;;9.32;5.57;;;9.70;61.00;;;;;;4963331;28;20114;-66
2021/04/21 02:41:16;;;;;;;15.13;5.35;;;9.60;61.00;;;;;;4956458;28;20397;-66
2021/04/21 02:44:01;;;;;;;11.02;5.60;;;9.60;60.80;;;;;;4964107;28;20030;-66
2021/04/21 02:46:56;;;;;;;10.18;5.15;;;9.60;61.10;;;;;;4965727;28;20424;-67
2021/04/21 02:49:54;;;;;;;11.23;6.13;;;9.60;61.00;;;;;;4953462;28;20066;-66
2021/04/21 02:52:50;;;;;;;8.75;5.88;;;9.60;61.10;;;;;;4963133;28;20058;-66
2021/04/21 02:55:48;;;;;;;9.45;5.55;;;9.50;61.20;;;;;;4964057;28;20114;-66
2021/04/21 02:58:26;;;;;;;10.00;5.55;;;9.50;61.00;;;;;;4961167;28;20058;-66
2021/04/21 03:01:12;;;;;;;10.85;5.70;;;9.50;61.20;;;;;;4960457;28;20632;-66
2021/04/21 03:03:48;;;;;;;11.50;6.22;;;9.50;61.40;;;;;;4962214;28;20049;-66
2021/04/21 03:06:24;;;;;;;10.80;6.07;;;9.50;61.60;;;;;;4961728;28;20030;-66
2021/04/21 03:09:04;;;;;;;13.27;5.78;;;9.40;61.40;;;;;;4961122;28;20049;-66
2021/04/21 03:11:31;;;;;;;11.98;6.82;;;9.40;61.50;;;;;;4962562;28;20034;-66
2021/04/21 03:14:15;;;;;;;10.70;6.47;;;9.40;61.70;;;;;;4964420;28;20039;-66
2021/04/21 03:16:48;;;;;;;12.35;6.70;;;9.30;61.80;;;;;;4962596;28;20173;-67
2021/04/21 03:19:18;;;;;;;10.10;6.30;;;9.30;62.70;;;;;;4964537;28;20031;-66
2021/04/21 03:21:53;;;;;;;12.10;5.72;;;9.20;62.40;;;;;;4962380;28;20037;-66
2021/04/21 03:24:24;;;;;;;11.15;6.20;;;9.20;62.30;;;;;;4959939;28;20035;-66
2021/04/21 03:26:54;;;;;;;12.65;6.35;;;9.20;62.60;;;;;;4963395;28;20412;-66
2021/04/21 03:29:35;;;;;;;9.25;6.05;;;9.20;62.60;;;;;;4963960;28;20089;-67
2021/04/21 03:32:05;;;;;;;10.13;6.40;;;9.20;62.60;;;;;;4961685;28;20027;-66
2021/04/21 03:34:32;;;;;;;10.70;6.50;;;9.20;62.80;;;;;;4961930;28;20038;-66
2021/04/21 03:36:59;;;;;;;12.00;6.13;;;9.20;62.80;;;;;;4963818;28;20035;-66
2021/04/21 03:39:26;;;;;;;12.40;6.22;;;9.20;62.80;;;;;;4965463;28;20093;-66
2021/04/21 03:41:51;;;;;;;10.60;5.88;;;9.20;63.20;;;;;;4966626;28;20226;-66
2021/04/21 03:44:18;;;;;;;14.00;7.15;;;9.20;63.20;;;;;;4966168;28;20100;-66
2021/04/21 03:46:45;;;;;;;12.40;6.95;;;9.20;63.90;;;;;;4966148;28;20497;-66
2021/04/21 03:49:11;;;;;;;13.02;6.72;;;9.10;63.60;;;;;;4966112;28;20042;-66
2021/04/21 03:51:37;;;;;;;11.48;6.30;;;9.10;63.70;;;;;;4967003;28;20038;-66
2021/04/21 03:54:04;;;;;;;12.20;6.65;;;9.10;63.80;;;;;;4965793;28;20046;-66
2021/04/21 03:56:30;;;;;;;17.42;7.18;;;9.10;63.90;;;;;;4967618;28;20038;-66
2021/04/21 03:58:58;;;;;;;10.95;7.13;;;9.10;64.30;;;;;;4964795;28;20485;-66
2021/04/21 04:01:25;;;;;;;15.07;8.05;;;9.00;65.00;;;;;;4963036;28;20077;-66
2021/04/21 04:03:57;;;;;;;13.15;7.63;;;9.00;64.70;;;;;;4964088;28;20090;-66
2021/04/21 04:06:44;;;;;;;13.00;7.43;;;9.00;65.30;;;;;;4969318;28;20039;-66
2021/04/21 04:09:11;;;;;;;14.73;8.13;;;9.00;64.90;;;;;;4966219;28;20043;-66
2021/04/21 04:11:54;;;;;;;12.90;7.78;;;9.00;64.90;;;;;;4965890;28;20031;-67
2021/04/21 04:14:39;;;;;;;11.35;7.28;;;9.00;65.20;;;;;;4964161;28;20048;-66
2021/04/21 04:17:06;;;;;;;13.90;7.90;;;9.00;65.20;;;;;;4963699;28;20113;-66
2021/04/21 04:19:35;;;;;;;15.00;8.15;;;9.00;66.20;;;;;;4963263;28;20093;-66
2021/04/21 04:22:06;;;;;;;12.00;7.32;;;9.00;66.10;;;;;;4962219;28;20046;-66
2021/04/21 04:24:47;;;;;;;13.27;6.90;;;9.00;65.80;;;;;;4964443;28;20038;-66
2021/04/21 04:27:19;;;;;;;12.02;7.05;;;9.00;65.80;;;;;;4964469;28;20035;-66
2021/04/21 04:29:45;;;;;;;14.60;8.02;;;9.00;66.10;;;;;;4964864;28;20106;-66
2021/04/21 04:32:14;;;;;;;14.45;7.88;;;9.00;66.20;;;;;;4988917;28;20035;-66
2021/04/21 04:34:43;;;;;;;16.83;8.45;;;9.00;66.30;;;;;;4970239;28;20512;-66
2021/04/21 04:37:13;;;;;;;10.98;7.07;;;9.00;67.00;;;;;;4972227;28;20070;-67
2021/04/21 04:39:40;;;;;;;15.70;8.43;;;9.00;66.20;;;;;;4970803;28;20027;-67
2021/04/21 04:42:08;;;;;;;14.55;7.22;;;9.00;66.50;;;;;;4971715;28;20027;-66
2021/04/21 04:44:36;;;;;;;15.40;8.00;;;9.00;66.50;;;;;;4972708;28;20039;-66
2021/04/21 04:47:04;;;;;;;16.73;8.35;;;9.00;67.10;;;;;;4973555;28;20095;-66
2021/04/21 04:49:37;;;;;;;17.15;7.20;;;9.00;67.00;;;;;;4963050;28;20058;-66
2021/04/21 04:52:06;;;;;;;20.98;8.55;;;9.00;67.10;;;;;;4966861;28;20030;-66
2021/04/21 04:54:34;;;;;;;15.95;8.95;;;9.00;67.20;;;;;;4965462;28;20074;-66
2021/04/21 04:57:02;;;;;;;17.15;8.95;;;9.00;67.60;;;;;;4963517;28;20584;-67
2021/04/21 04:59:28;;;;;;;12.20;7.20;;;9.10;67.80;;;;;;4966248;28;20065;-66
2021/04/21 05:01:57;;;;;;;13.35;6.88;;;9.10;67.40;;;;;;4960354;28;20034;-66
2021/04/21 05:04:37;;;;;;;16.27;8.27;;;9.10;67.30;;;;;;4964429;28;20042;-67
2021/04/21 05:07:06;;;;;;;16.35;8.80;;;9.10;67.80;;;;;;4964428;28;20057;-67
2021/04/21 05:09:40;;;;;;;16.23;8.88;;;9.10;68.00;;;;;;4962768;28;20038;-67
2021/04/21 05:12:11;;;;;;;16.17;7.85;;;9.20;68.10;;;;;;4964375;28;20648;-66
2021/04/21 05:14:39;;;;;;;16.23;9.63;;;9.20;67.90;;;;;;4963587;28;20034;-67
2021/04/21 05:17:32;;;;;;;16.90;8.82;;;9.20;68.30;;;;;;4964325;28;20110;-67
2021/04/21 05:20:42;;;;;;;16.75;9.05;;;9.20;68.60;;;;;;4964420;28;20038;-67
2021/04/21 05:23:31;;;;;;;19.35;8.73;;;9.20;69.30;;;;;;4964663;28;20485;-67
2021/04/21 05:26:32;;;;;;;17.85;10.02;;;9.20;69.50;;;;;;4962372;28;20043;-67
2021/04/21 05:29:15;;;;;;;13.48;7.70;;;9.20;69.40;;;;;;4963281;28;20175;-67
2021/04/21 05:32:20;;;;;;;13.27;7.78;;;9.30;69.10;;;;;;4964014;28;20030;-67
2021/04/21 05:35:14;;;;;;;14.98;8.50;;;9.40;68.90;;;;;;4943957;28;20058;-67
2021/04/21 05:37:46;;;;;;;20.98;11.13;;;9.50;69.00;;;;;;4963722;28;20035;-67
2021/04/21 05:40:44;;;;;;;17.98;9.30;;;9.50;70.20;;;;;;4962828;28;20365;-67
2021/04/21 05:43:29;;;;;;;17.48;9.43;;;9.50;69.60;;;;;;4963142;28;20106;-67
2021/04/21 05:45:54;;;;;;;18.85;10.77;;;9.50;69.50;;;;;;4963583;28;20029;-67
2021/04/21 05:49:02;;;;;;;18.58;9.98;;;9.60;69.70;;;;;;4963446;28;20026;-68
2021/04/21 05:51:55;;;;;;;15.73;9.23;;;9.60;70.30;;;;;;4965680;28;20497;-67
2021/04/21 05:54:49;;;;;;;21.65;10.07;;;9.60;69.90;;;;;;4968507;28;20519;-66
2021/04/21 05:57:39;;;;;;;19.48;10.20;;;9.70;70.10;;;;;;4965789;28;20039;-67
2021/04/21 06:00:52;;;;;;;18.27;9.90;;;9.70;70.50;;;;;;4963959;28;20379;-67
2021/04/21 06:03:19;;;;;;;17.00;10.45;;;10.00;70.40;;;;;;4964864;28;20549;-67
2021/04/21 06:05:45;;;;;;;19.45;10.40;;;10.40;69.90;;;;;;4964074;28;20039;-67
2021/04/21 06:08:12;;;;;;;16.90;9.70;;;10.40;69.10;;;;;;4964120;28;20037;-64
2021/04/21 06:10:39;;;;;;;17.67;11.93;;;10.40;69.10;;;;;;4966535;28;20041;-65
2021/04/21 06:13:05;;;;;;;19.95;10.23;;;10.40;69.30;;;;;;4963289;28;20035;-66
2021/04/21 06:15:34;;;;;;;17.08;10.43;;;10.30;69.40;;;;;;4963796;28;20090;-67
2021/04/21 06:18:07;;;;;;;16.30;10.55;;;10.30;69.70;;;;;;4964114;28;20035;-65
2021/04/21 06:20:43;;;;;;;18.67;11.23;;;10.30;70.10;;;;;;4964950;28;20432;-66
2021/04/21 06:23:19;;;;;;;16.58;10.77;;;10.20;70.30;;;;;;4964030;28;20389;-67
2021/04/21 06:26:06;;;;;;;14.52;9.00;;;10.20;70.10;;;;;;4961370;28;20035;-67
2021/04/21 06:28:32;;;;;;;17.30;10.93;;;10.20;70.20;;;;;;4962963;28;20062;-64
2021/04/21 06:31:09;;;;;;;18.85;11.85;;;10.30;70.20;;;;;;4964874;28;20085;-64
2021/04/21 06:33:37;;;;;;;17.27;10.15;;;10.30;70.80;;;;;;4963484;28;20046;-64
2021/04/21 06:36:05;;;;;;;13.20;8.82;;;10.40;70.40;;;;;;4963927;28;20054;-64
2021/04/21 06:38:33;;;;;;;18.17;11.45;;;10.40;70.20;;;;;;4960756;28;20796;-64
2021/04/21 06:40:59;;;;;;;22.40;12.00;;;10.40;70.30;;;;;;4964243;28;20046;-66
2021/04/21 06:43:27;;;;;;;18.25;10.57;;;10.50;70.60;;;;;;4963925;28;20361;-65
2021/04/21 06:45:53;;;;;;;21.40;11.68;;;10.50;70.20;;;;;;4962304;28;20460;-64
2021/04/21 06:48:35;;;;;;;16.08;9.20;;;10.60;70.40;;;;;;4964166;28;20027;-66
2021/04/21 06:51:14;;;;;;;26.85;12.70;;;10.60;70.30;;;;;;4964595;28;20049;-65
2021/04/21 06:53:42;;;;;;;21.45;10.60;;;10.60;71.40;;;;;;4948448;28;20038;-64
2021/04/21 06:56:08;;;;;;;17.45;11.77;;;10.70;71.20;;;;;;4954749;28;20054;-64
2021/04/21 06:58:35;;;;;;;19.30;12.35;;;10.70;70.70;;;;;;4962763;28;20062;-70
2021/04/21 07:01:28;;;;;;;16.10;10.80;;;10.70;70.50;;;;;;4964610;28;20034;-64
2021/04/21 07:04:12;;;;;;;19.50;11.30;;;10.70;70.80;;;;;;4961922;28;20111;-64
2021/04/21 07:06:41;;;;;;;18.92;11.57;;;10.80;70.80;;;;;;4961915;28;20039;-65
2021/04/21 07:09:20;;;;;;;16.42;9.98;;;10.80;70.40;;;;;;4962664;28;20114;-64
2021/04/21 07:11:58;;;;;;;15.85;10.38;;;10.90;70.10;;;;;;4963742;28;20033;-64
2021/04/21 07:14:26;;;;;;;17.67;10.88;;;10.90;70.20;;;;;;4960300;28;20026;-64
2021/04/21 07:16:53;;;;;;;19.92;11.35;;;10.90;69.70;;;;;;4959113;28;20058;-67
2021/04/21 07:19:21;;;;;;;15.20;11.05;;;11.00;70.00;;;;;;4960650;28;20031;-67
2021/04/21 07:21:48;;;;;;;13.25;8.88;;;11.00;69.70;;;;;;4964810;28;20111;-65
2021/04/21 07:24:16;;;;;;;14.82;9.40;;;11.00;69.60;;;;;;4964395;28;20027;-64
2021/04/21 07:26:47;;;;;;;14.82;9.80;;;11.10;69.80;;;;;;4960752;28;20114;-65
2021/04/21 07:29:19;;;;;;;14.85;9.98;;;11.20;69.90;;;;;;4962740;28;20039;-66
2021/04/21 07:31:45;;;;;;;18.35;10.85;;;11.30;69.90;;;;;;4962804;28;20027;-66
2021/04/21 07:34:25;;;;;;;19.98;10.65;;;11.30;70.40;;;;;;4962983;28;20030;-65
2021/04/21 07:36:51;;;;;;;17.95;10.73;;;11.30;70.60;;;;;;4963778;28;20039;-66
2021/04/21 07:39:16;;;;;;;18.25;11.45;;;11.40;70.80;;;;;;4964691;28;20034;-66
2021/04/21 07:41:48;;;;;;;16.52;11.73;;;11.50;71.20;;;;;;4961908;28;20031;-66
2021/04/21 07:44:37;;;;;;;;;;;11.40;71.20;;;;;;4960857;28;20050;-65
2021/04/21 07:47:05;;;;;;;17.25;9.73;;;11.40;71.30;;;;;;4961026;28;19914;-65
2021/04/21 07:49:34;;;;;;;21.83;12.32;;;11.50;71.20;;;;;;4962174;28;20035;-65
2021/04/21 07:52:01;;;;;;;16.23;10.85;;;11.60;71.40;;;;;;4961293;28;20101;-65
2021/04/21 07:54:29;;;;;;;20.02;11.77;;;11.60;71.00;;;;;;4961535;28;20040;-65
2021/04/21 07:57:01;;;;;;;21.23;12.65;;;11.70;71.30;;;;;;4962666;28;20363;-65
2021/04/21 07:59:34;;;;;;;17.00;11.15;;;11.70;71.60;;;;;;4964012;28;20054;-65
2021/04/21 08:02:23;;;;;;;26.33;14.10;;;11.70;71.70;;;;;;4961214;28;20039;-63
2021/04/21 08:05:06;;;;;;;24.15;13.55;;;11.80;71.50;;;;;;4960817;28;20516;-64
2021/04/21 08:07:42;;;;;;;22.38;13.48;;;11.80;72.20;;;;;;4957764;28;20031;-64
2021/04/21 08:10:08;;;;;;;23.20;13.70;;;11.70;73.00;;;;;;4962473;28;20034;-64
2021/04/21 08:12:35;;;;;;;23.40;15.32;;;11.80;72.90;;;;;;4963088;28;20585;-64
2021/04/21 08:15:06;;;;;;;25.08;16.92;;;11.80;73.40;;;;;;4966823;28;20035;-65
2021/04/21 08:17:56;;;;;;;27.30;18.23;;;11.80;74.00;;;;;;4966440;28;20051;-65
2021/04/21 08:20:40;;;;;;;26.90;16.50;;;11.80;74.60;;;;;;4960521;28;20036;-64
2021/04/21 08:23:08;;;;;;;28.67;19.02;;;11.80;74.60;;;;;;4961452;28;20122;-64
2021/04/21 08:25:35;;;;;;;31.85;20.13;;;11.80;75.30;;;;;;4966416;28;20560;-64
2021/04/21 08:28:01;;;;;;;32.63;20.00;;;11.80;74.90;;;;;;4967239;28;20039;-64
2021/04/21 08:30:29;;;;;;;31.55;20.40;;;11.80;75.80;;;;;;4965976;28;20039;-67
2021/04/21 08:32:56;;;;;;;32.05;17.85;;;11.80;76.20;;;;;;4964737;28;20374;-65
2021/04/21 08:35:25;;;;;;;30.65;18.73;;;11.80;75.70;;;;;;4965843;28;20105;-64
2021/04/21 08:37:51;;;;;;;30.63;19.20;;;11.80;75.50;;;;;;4962820;28;20121;-64
2021/04/21 08:40:20;;;;;;;34.70;21.50;;;11.90;75.70;;;;;;4965554;28;20098;-65
2021/04/21 08:42:56;;;;;;;35.72;22.65;;;11.80;75.50;;;;;;4964425;28;20019;-64
2021/04/21 08:45:22;;;;;;;37.15;23.48;;;11.80;75.80;;;;;;4965449;28;20456;-64
2021/04/21 08:47:49;;;;;;;44.10;25.52;;;11.60;76.60;;;;;;4964566;28;20058;-65
2021/04/21 08:50:16;;;;;;;40.42;24.30;;;11.50;77.20;;;;;;4963614;28;20039;-65
2021/04/21 08:52:50;;;;;;;39.38;24.08;;;11.40;77.80;;;;;;4963861;28;20082;-65
2021/04/21 08:55:16;;;;;;;43.10;26.05;;;11.40;78.10;;;;;;4963686;28;20109;-64
2021/04/21 08:57:47;;;;;;;43.53;25.58;;;11.30;78.60;;;;;;4963025;28;20039;-65
2021/04/21 09:00:15;;;;;;;42.03;24.97;;;11.20;79.20;;;;;;4961963;28;20031;-64
2021/04/21 09:02:42;;;;;;;46.28;24.98;;;11.20;78.80;;;;;;4964106;28;20062;-65
2021/04/21 09:05:09;;;;;;;36.33;23.35;;;11.20;79.00;;;;;;4965053;28;20117;-64
2021/04/21 09:07:38;;;;;;;43.85;23.90;;;11.20;79.00;;;;;;4960510;28;20114;-65
2021/04/21 09:10:08;;;;;;;40.53;22.13;;;11.30;79.10;;;;;;4968004;28;20034;-65
2021/04/21 09:12:35;;;;;;;39.90;21.87;;;11.30;79.00;;;;;;4963002;28;20126;-65
2021/04/21 09:15:02;;;;;;;35.40;21.05;;;11.40;78.50;;;;;;4962448;28;20027;-64
2021/04/21 09:17:30;;;;;;;32.38;19.88;;;11.50;77.90;;;;;;4962584;28;20035;-65
2021/04/21 09:19:56;;;;;;;34.75;19.48;;;11.60;77.80;;;;;;4963480;28;20637;-65
2021/04/21 09:22:24;;;;;;;33.17;19.63;;;11.60;77.60;;;;;;4969807;28;20070;-65
2021/04/21 09:24:57;;;;;;;29.15;18.45;;;11.60;77.30;;;;;;4964043;28;20039;-64
2021/04/21 09:27:35;;;;;;;28.33;17.63;;;11.60;77.50;;;;;;4963695;28;20035;-65
2021/04/21 09:30:11;;;;;;;30.48;17.20;;;11.60;76.70;;;;;;4964959;28;20081;-64
2021/04/21 09:32:44;;;;;;;32.90;19.13;;;11.60;76.60;;;;;;4962678;28;20058;-64
2021/04/21 09:35:15;;;;;;;30.35;17.25;;;11.70;76.60;;;;;;4961629;28;20118;-64
2021/04/21 09:37:41;;;;;;;;;;;11.60;77.10;;;;;;4960603;28;20050;-64
2021/04/21 09:40:09;;;;;;;31.02;16.52;;;11.60;77.10;;;;;;4963492;28;19910;-64
2021/04/21 09:42:35;;;;;;;30.10;18.10;;;11.50;77.30;;;;;;4959603;28;20082;-65
2021/04/21 09:45:01;;;;;;;27.90;17.05;;;11.50;77.90;;;;;;4963828;28;20437;-64
2021/04/21 09:47:27;;;;;;;28.60;17.63;;;11.40;77.70;;;;;;4963429;28;20031;-65
2021/04/21 09:49:58;;;;;;;29.45;17.00;;;11.40;78.00;;;;;;4965537;28;20054;-65
2021/04/21 09:52:24;;;;;;;29.00;16.98;;;11.40;77.90;;;;;;4963844;28;20031;-65
2021/04/21 09:54:51;;;;;;;25.42;15.90;;;11.40;77.90;;;;;;4962872;28;20053;-65
2021/04/21 09:57:19;;;;;;;27.90;16.90;;;11.50;77.40;;;;;;4963773;28;20062;-65
2021/04/21 10:00:02;;;;;;;34.60;16.88;;;11.50;77.70;;;;;;4961661;28;20101;-65
2021/04/21 10:02:32;;;;;;;34.05;15.93;;;11.60;76.80;;;;;;4959151;28;20030;-65
2021/04/21 10:04:58;;;;;;;23.35;14.43;;;11.60;76.40;;;;;;4961940;28;20031;-65
2021/04/21 10:07:24;;;;;;;21.98;14.60;;;11.60;76.40;;;;;;4960347;28;20109;-65
2021/04/21 10:09:57;;;;;;;20.95;13.55;;;11.60;76.20;;;;;;4962866;28;20042;-65
2021/04/21 10:12:29;;;;;;;23.27;13.20;;;11.60;76.10;;;;;;4965161;28;20031;-65
2021/04/21 10:15:02;;;;;;;17.92;11.60;;;11.70;75.70;;;;;;4970084;28;20035;-65
2021/04/21 10:17:35;;;;;;;21.98;12.57;;;11.70;75.30;;;;;;4963651;28;20101;-65
2021/04/21 10:20:06;;;;;;;20.30;12.88;;;11.70;74.70;;;;;;4962760;28;20035;-66
2021/04/21 10:22:32;;;;;;;25.00;12.82;;;11.70;73.70;;;;;;4964409;28;20501;-65
2021/04/21 10:24:59;;;;;;;17.75;11.95;;;11.70;72.80;;;;;;4962811;28;20122;-66
2021/04/21 10:27:25;;;;;;;15.32;10.80;;;11.70;73.00;;;;;;4963046;28;20066;-66
2021/04/21 10:29:51;;;;;;;19.75;10.82;;;11.70;73.10;;;;;;4962515;28;20042;-68
2021/04/21 10:32:17;;;;;;;15.93;10.65;;;11.60;73.40;;;;;;4964153;28;20031;-66
2021/04/21 10:34:43;;;;;;;15.18;9.48;;;11.60;73.50;;;;;;4962309;28;20117;-65
2021/04/21 10:37:11;;;;;;;15.07;9.20;;;11.60;74.00;;;;;;4963022;28;20034;-66
2021/04/21 10:39:38;;;;;;;14.43;7.93;;;11.50;73.50;;;;;;4962042;28;20031;-66
2021/04/21 10:42:09;;;;;;;15.30;7.43;;;11.50;73.30;;;;;;4962490;28;20034;-66
2021/04/21 10:44:37;;;;;;;12.40;6.88;;;11.40;73.20;;;;;;4965083;28;20035;-67
2021/04/21 10:47:08;;;;;;;8.38;5.78;;;11.40;73.00;;;;;;4962802;28;20069;-66
2021/04/21 10:49:42;;;;;;;10.00;5.40;;;11.50;72.80;;;;;;4962197;28;20034;-67
2021/04/21 10:52:16;;;;;;;8.18;5.07;;;11.50;72.80;;;;;;4961920;28;20039;-66
2021/04/21 10:54:47;;;;;;;10.13;5.88;;;11.60;72.50;;;;;;4984581;23;20249;-68
2021/04/21 10:57:22;;;;;;;8.60;4.45;;;11.80;71.10;;;;;;4963734;28;20046;-67
2021/04/21 11:00:16;;;;;;;8.07;4.28;;;12.00;70.50;;;;;;4964347;28;20023;-67
2021/04/21 11:02:42;;;;;;;11.50;3.85;;;12.10;67.80;;;;;;4947504;28;20042;-67
2021/04/21 11:05:10;;;;;;;8.07;3.33;;;12.20;67.20;;;;;;4962145;28;20034;-67
2021/04/21 11:07:37;;;;;;;8.43;3.03;;;12.20;66.10;;;;;;4962585;28;20042;-67
2021/04/21 11:10:09;;;;;;;6.28;3.28;;;12.10;66.80;;;;;;4965269;28;20395;-67
2021/04/21 11:12:53;;;;;;;8.32;3.22;;;12.10;67.60;;;;;;4963359;28;20508;-66
2021/04/21 11:15:44;;;;;;;4.43;2.67;;;12.30;66.90;;;;;;4963873;28;20073;-67
2021/04/21 11:18:10;;;;;;;7.35;3.15;;;12.50;66.00;;;;;;4961173;28;20031;-66
2021/04/21 11:20:48;;;;;;;9.80;2.60;;;13.00;64.30;;;;;;4964119;28;20038;-67
2021/04/21 11:26:26;;;;;;;6.68;2.33;;;13.40;60.90;;;;;;4960464;28;20046;-69
2021/04/21 11:29:16;;;;;;;46.33;21.13;;;13.30;61.40;;;;;;4961382;28;20084;-69
2021/04/21 11:31:45;;;;;;;150.70;91.32;;;13.40;61.20;;;;;;4960215;28;20122;-70
2021/04/21 11:34:20;;;;;;;21.40;9.65;;;13.40;60.60;;;;;;4961854;28;20024;-68
2021/04/21 11:36:50;;;;;;;8.75;2.80;;;13.20;60.50;;;;;;4959527;28;20030;-68
2021/04/21 11:39:56;;;;;;;7.82;1.90;;;13.00;61.40;;;;;;4968084;28;20027;-66
2021/04/21 11:42:43;;;;;;;6.30;2.03;;;13.10;60.20;;;;;;4962994;28;20037;-67
2021/04/21 11:45:29;;;;;;;17.90;3.00;;;12.90;59.40;;;;;;4962270;28;20503;-68
2021/04/21 11:48:16;;;;;;;7.43;1.80;;;12.70;58.90;;;;;;4961391;28;20493;-67
2021/04/21 11:50:44;;;;;;;7.78;1.90;;;12.70;59.80;;;;;;4975898;28;20027;-68
2021/04/21 11:53:15;;;;;;;10.52;2.00;;;12.70;60.00;;;;;;4964153;28;20039;-68
2021/04/21 11:58:26;;;;;;;7.55;1.73;;;12.70;59.20;;;;;;4962834;28;20055;-67
2021/04/21 12:00:59;;;;;;;10.65;1.70;;;12.70;59.80;;;;;;4965800;28;20494;-68
2021/04/21 12:03:30;;;;;;;9.43;1.70;;;12.60;58.80;;;;;;4967259;28;20062;-69
2021/04/21 12:06:01;;;;;;;15.48;2.58;;;12.50;57.70;;;;;;4966177;28;20015;-69
2021/04/21 12:08:30;;;;;;;8.77;2.47;;;12.60;59.00;;;;;;4963904;28;20090;-69
2021/04/21 12:10:57;;;;;;;9.27;2.08;;;13.00;58.00;;;;;;4979682;28;20085;-68
2021/04/21 12:13:27;;;;;;;7.22;1.88;;;13.20;59.20;;;;;;4966242;28;20070;-68
2021/04/21 12:16:14;;;;;;;13.63;2.60;;;13.70;57.40;;;;;;4977735;28;20039;-68
2021/04/21 12:18:45;;;;;;;10.57;2.08;;;14.30;54.80;;;;;;4973986;28;20034;-68
2021/04/21 12:21:17;;;;;;;8.07;1.73;;;14.50;51.90;;;;;;4965528;28;20027;-68
2021/04/21 12:23:50;;;;;;;8.77;1.50;;;14.60;50.60;;;;;;4978090;28;20031;-68
2021/04/21 12:26:24;;;;;;;7.57;2.15;;;14.50;50.10;;;;;;4963928;28;20031;-67
2021/04/21 12:28:53;;;;;;;13.70;2.40;;;14.60;51.70;;;;;;4965307;28;20038;-67
2021/04/21 12:31:21;;;;;;;8.95;1.80;;;15.00;50.30;;;;;;4962455;28;20034;-68
2021/04/21 12:33:48;;;;;;;9.20;1.50;;;15.00;50.10;;;;;;4965502;28;20396;-68
2021/04/21 12:36:16;;;;;;;10.48;1.80;;;14.80;47.00;;;;;;4962985;28;20034;-68
2021/04/21 12:38:41;;;;;;;6.53;1.80;;;14.40;45.50;;;;;;4964146;28;20085;-67
2021/04/21 12:41:18;;;;;;;9.00;1.55;;;14.20;45.90;;;;;;4965517;28;20436;-68
2021/04/21 12:43:43;;;;;;;9.85;2.28;;;14.50;47.70;;;;;;4963300;28;20031;-67
2021/04/21 12:46:17;;;;;;;13.43;2.30;;;15.00;46.80;;;;;;4965126;28;20519;-67
2021/04/21 12:48:55;;;;;;;8.60;2.15;;;15.50;45.60;;;;;;4963163;28;20031;-68
2021/04/21 12:51:31;;;;;;;10.05;2.38;;;15.80;43.80;;;;;;4965053;28;20065;-68
2021/04/21 12:54:04;;;;;;;8.18;1.92;;;15.70;43.40;;;;;;4966071;28;20043;-68
2021/04/21 12:56:36;;;;;;;8.25;2.00;;;15.40;44.20;;;;;;4964247;28;20035;-66
2021/04/21 12:59:22;;;;;;;7.38;1.65;;;15.50;43.70;;;;;;4964867;28;20520;-68
2021/04/21 13:01:47;;;;;;;10.85;1.98;;;15.80;44.20;;;;;;4963086;28;20512;-67
2021/04/21 13:04:16;;;;;;;9.85;2.38;;;16.30;44.60;;;;;;4965430;28;20051;-68
2021/04/21 13:06:50;;;;;;;8.43;2.45;;;16.80;40.90;;;;;;4963523;28;20089;-68
2021/04/21 13:09:17;;;;;;;6.25;1.73;;;17.30;40.80;;;;;;4961608;28;20461;-67
2021/04/21 13:11:48;;;;;;;11.00;2.45;;;17.70;38.00;;;;;;4964209;28;20070;-67
2021/04/21 13:14:15;;;;;;;8.50;2.67;;;17.80;35.90;;;;;;4963413;28;20083;-67
2021/04/21 13:16:49;;;;;;;7.45;2.50;;;17.90;35.10;;;;;;4961860;28;20031;-67
2021/04/21 13:19:20;;;;;;;9.45;2.60;;;18.30;35.70;;;;;;4962562;28;20042;-68
2021/04/21 13:22:05;;;;;;;;;;;18.40;34.00;;;;;;4967769;28;20050;-68